Terminal Aerodrome Forecast
Issued by NWS Cleveland, OH

Home | Current Version | Previous Version | Graphics & Text | Print | Product List | Glossary Off
Versions: 1 2 3 4 5 6 7 8 9 10 11 12 13 14 15 16 17 18 19 20 21 22

000
FTUS41 KCLE 261500 AAA
TAFCLE
TAF AMD
KCLE 261502Z 2615/2718 19012G16KT P6SM SKC
     FM261800 20012G20KT P6SM SKC
     FM270000 20010KT P6SM BKN250
     FM270900 20008KT P6SM BKN050=

USA.gov is the U.S. government's official web portal to all federal, state and local government web resources and services.